sensor_id;sensor_type;location;lat;lon;timestamp;P1;durP1;ratioP1;P2;durP2;ratioP2
9986;SDS011;5033;46.310;11.214;2023-02-23T00:01:12;52.65;;;37.53;;
9986;SDS011;5033;46.310;11.214;2023-02-23T00:03:41;55.83;;;40.40;;
9986;SDS011;5033;46.310;11.214;2023-02-23T00:06:08;57.65;;;39.80;;
9986;SDS011;5033;46.310;11.214;2023-02-23T00:08:35;85.22;;;54.90;;
9986;SDS011;5033;46.310;11.214;2023-02-23T00:11:03;79.70;;;52.35;;
9986;SDS011;5033;46.310;11.214;2023-02-23T00:13:33;76.53;;;52.33;;
9986;SDS011;5033;46.310;11.214;2023-02-23T00:16:05;65.90;;;46.25;;
9986;SDS011;5033;46.310;11.214;2023-02-23T00:18:33;62.58;;;42.97;;
9986;SDS011;5033;46.310;11.214;2023-02-23T00:21:09;61.97;;;42.28;;
9986;SDS011;5033;46.310;11.214;2023-02-23T00:23:40;53.30;;;38.20;;
9986;SDS011;5033;46.310;11.214;2023-02-23T00:26:09;55.63;;;38.80;;
9986;SDS011;5033;46.310;11.214;2023-02-23T00:28:39;59.28;;;40.85;;
9986;SDS011;5033;46.310;11.214;2023-02-23T00:31:08;62.28;;;41.88;;
9986;SDS011;5033;46.310;11.214;2023-02-23T00:33:36;52.63;;;39.13;;
9986;SDS011;5033;46.310;11.214;2023-02-23T00:36:05;53.50;;;37.60;;
9986;SDS011;5033;46.310;11.214;2023-02-23T00:38:34;49.80;;;36.33;;
9986;SDS011;5033;46.310;11.214;2023-02-23T00:41:05;55.42;;;37.20;;
9986;SDS011;5033;46.310;11.214;2023-02-23T00:43:34;54.63;;;38.17;;
9986;SDS011;5033;46.310;11.214;2023-02-23T00:46:04;54.58;;;37.88;;
9986;SDS011;5033;46.310;11.214;2023-02-23T00:48:32;63.60;;;44.08;;
9986;SDS011;5033;46.310;11.214;2023-02-23T00:50:59;57.88;;;40.60;;
9986;SDS011;5033;46.310;11.214;2023-02-23T00:53:27;54.22;;;39.88;;
9986;SDS011;5033;46.310;11.214;2023-02-23T00:55:55;64.18;;;42.60;;
9986;SDS011;5033;46.310;11.214;2023-02-23T00:58:22;55.40;;;40.58;;
9986;SDS011;5033;46.310;11.214;2023-02-23T01:00:50;63.33;;;43.63;;
9986;SDS011;5033;46.310;11.214;2023-02-23T01:03:18;56.85;;;39.45;;
9986;SDS011;5033;46.310;11.214;2023-02-23T01:05:45;60.15;;;40.75;;
9986;SDS011;5033;46.310;11.214;2023-02-23T01:08:14;60.90;;;41.38;;
9986;SDS011;5033;46.310;11.214;2023-02-23T01:10:42;56.83;;;40.22;;
9986;SDS011;5033;46.310;11.214;2023-02-23T01:13:16;53.95;;;38.55;;
9986;SDS011;5033;46.310;11.214;2023-02-23T01:15:43;60.33;;;42.05;;
9986;SDS011;5033;46.310;11.214;2023-02-23T01:18:12;69.80;;;41.95;;
9986;SDS011;5033;46.310;11.214;2023-02-23T01:20:40;56.75;;;40.33;;
9986;SDS011;5033;46.310;11.214;2023-02-23T01:23:08;59.92;;;41.33;;
9986;SDS011;5033;46.310;11.214;2023-02-23T01:25:37;55.55;;;38.42;;
9986;SDS011;5033;46.310;11.214;2023-02-23T01:28:04;60.75;;;40.83;;
9986;SDS011;5033;46.310;11.214;2023-02-23T01:30:31;61.50;;;41.42;;
9986;SDS011;5033;46.310;11.214;2023-02-23T01:32:59;62.08;;;42.42;;
9986;SDS011;5033;46.310;11.214;2023-02-23T01:35:26;60.85;;;41.45;;
9986;SDS011;5033;46.310;11.214;2023-02-23T01:37:55;60.33;;;42.08;;
9986;SDS011;5033;46.310;11.214;2023-02-23T01:40:23;60.67;;;41.75;;
9986;SDS011;5033;46.310;11.214;2023-02-23T01:42:54;61.05;;;41.13;;
9986;SDS011;5033;46.310;11.214;2023-02-23T01:45:27;56.92;;;40.80;;
9986;SDS011;5033;46.310;11.214;2023-02-23T01:47:57;56.83;;;41.35;;
9986;SDS011;5033;46.310;11.214;2023-02-23T01:50:27;60.50;;;40.20;;
9986;SDS011;5033;46.310;11.214;2023-02-23T01:52:59;58.63;;;41.25;;
9986;SDS011;5033;46.310;11.214;2023-02-23T01:55:26;57.63;;;40.95;;
9986;SDS011;5033;46.310;11.214;2023-02-23T01:57:56;60.45;;;41.20;;
9986;SDS011;5033;46.310;11.214;2023-02-23T02:00:29;65.53;;;42.95;;
9986;SDS011;5033;46.310;11.214;2023-02-23T02:03:00;66.90;;;45.70;;
9986;SDS011;5033;46.310;11.214;2023-02-23T02:05:32;65.82;;;44.65;;
9986;SDS011;5033;46.310;11.214;2023-02-23T02:08:04;64.72;;;43.70;;
9986;SDS011;5033;46.310;11.214;2023-02-23T02:10:34;59.40;;;41.22;;
9986;SDS011;5033;46.310;11.214;2023-02-23T02:13:18;64.00;;;44.85;;
9986;SDS011;5033;46.310;11.214;2023-02-23T02:18:53;69.50;;;46.60;;
9986;SDS011;5033;46.310;11.214;2023-02-23T02:27:40;53.95;;;39.20;;
9986;SDS011;5033;46.310;11.214;2023-02-23T02:33:31;51.25;;;35.70;;
9986;SDS011;5033;46.310;11.214;2023-02-23T02:36:20;66.53;;;42.92;;
9986;SDS011;5033;46.310;11.214;2023-02-23T02:38:58;59.72;;;43.05;;
9986;SDS011;5033;46.310;11.214;2023-02-23T02:41:48;61.85;;;42.67;;
9986;SDS011;5033;46.310;11.214;2023-02-23T02:44:25;60.88;;;42.53;;
9986;SDS011;5033;46.310;11.214;2023-02-23T02:46:57;63.35;;;42.53;;
9986;SDS011;5033;46.310;11.214;2023-02-23T02:49:30;66.82;;;45.25;;
9986;SDS011;5033;46.310;11.214;2023-02-23T02:52:07;59.65;;;40.42;;
9986;SDS011;5033;46.310;11.214;2023-02-23T02:54:40;60.67;;;41.42;;
9986;SDS011;5033;46.310;11.214;2023-02-23T02:57:12;59.40;;;40.88;;
9986;SDS011;5033;46.310;11.214;2023-02-23T02:59:41;61.97;;;42.40;;
9986;SDS011;5033;46.310;11.214;2023-02-23T03:02:26;58.65;;;39.65;;
9986;SDS011;5033;46.310;11.214;2023-02-23T03:05:12;66.90;;;43.42;;
9986;SDS011;5033;46.310;11.214;2023-02-23T03:08:00;57.50;;;41.45;;
9986;SDS011;5033;46.310;11.214;2023-02-23T03:10:55;62.50;;;40.92;;
9986;SDS011;5033;46.310;11.214;2023-02-23T03:13:46;60.45;;;43.13;;
9986;SDS011;5033;46.310;11.214;2023-02-23T03:16:40;60.05;;;40.58;;
9986;SDS011;5033;46.310;11.214;2023-02-23T03:19:30;64.53;;;43.05;;
9986;SDS011;5033;46.310;11.214;2023-02-23T03:22:20;62.72;;;43.55;;
9986;SDS011;5033;46.310;11.214;2023-02-23T03:25:07;63.88;;;42.97;;
9986;SDS011;5033;46.310;11.214;2023-02-23T03:27:57;58.10;;;42.00;;
9986;SDS011;5033;46.310;11.214;2023-02-23T03:30:50;62.63;;;40.20;;
9986;SDS011;5033;46.310;11.214;2023-02-23T03:33:44;65.10;;;43.13;;
9986;SDS011;5033;46.310;11.214;2023-02-23T03:36:44;53.13;;;37.97;;
9986;SDS011;5033;46.310;11.214;2023-02-23T03:39:34;57.35;;;39.00;;
9986;SDS011;5033;46.310;11.214;2023-02-23T03:42:25;60.40;;;40.08;;
9986;SDS011;5033;46.310;11.214;2023-02-23T03:45:15;59.03;;;40.70;;
9986;SDS011;5033;46.310;11.214;2023-02-23T03:48:02;61.72;;;41.78;;
9986;SDS011;5033;46.310;11.214;2023-02-23T03:50:51;65.32;;;42.55;;
9986;SDS011;5033;46.310;11.214;2023-02-23T03:53:39;58.83;;;39.38;;
9986;SDS011;5033;46.310;11.214;2023-02-23T03:56:27;65.57;;;44.42;;
9986;SDS011;5033;46.310;11.214;2023-02-23T03:59:16;62.13;;;42.10;;
9986;SDS011;5033;46.310;11.214;2023-02-23T04:02:04;62.80;;;43.38;;
9986;SDS011;5033;46.310;11.214;2023-02-23T04:04:51;64.88;;;44.50;;
9986;SDS011;5033;46.310;11.214;2023-02-23T04:07:39;62.03;;;42.13;;
9986;SDS011;5033;46.310;11.214;2023-02-23T04:10:24;67.75;;;44.40;;
9986;SDS011;5033;46.310;11.214;2023-02-23T04:13:12;65.68;;;45.20;;
9986;SDS011;5033;46.310;11.214;2023-02-23T04:15:43;71.15;;;45.10;;
9986;SDS011;5033;46.310;11.214;2023-02-23T04:18:16;69.47;;;48.03;;
9986;SDS011;5033;46.310;11.214;2023-02-23T04:20:46;70.60;;;44.13;;
9986;SDS011;5033;46.310;11.214;2023-02-23T04:23:13;66.85;;;45.28;;
9986;SDS011;5033;46.310;11.214;2023-02-23T04:25:40;67.15;;;45.60;;
9986;SDS011;5033;46.310;11.214;2023-02-23T04:28:07;66.10;;;44.40;;
9986;SDS011;5033;46.310;11.214;2023-02-23T04:30:34;65.47;;;44.20;;
9986;SDS011;5033;46.310;11.214;2023-02-23T04:33:01;64.20;;;43.70;;
9986;SDS011;5033;46.310;11.214;2023-02-23T04:35:29;63.70;;;43.95;;
9986;SDS011;5033;46.310;11.214;2023-02-23T04:37:57;67.43;;;45.28;;
9986;SDS011;5033;46.310;11.214;2023-02-23T04:40:24;65.93;;;43.35;;
9986;SDS011;5033;46.310;11.214;2023-02-23T04:42:51;62.83;;;42.70;;
9986;SDS011;5033;46.310;11.214;2023-02-23T04:45:19;63.80;;;42.13;;
9986;SDS011;5033;46.310;11.214;2023-02-23T04:47:47;67.00;;;45.10;;
9986;SDS011;5033;46.310;11.214;2023-02-23T04:50:14;65.93;;;43.13;;
9986;SDS011;5033;46.310;11.214;2023-02-23T04:52:43;61.13;;;42.53;;
9986;SDS011;5033;46.310;11.214;2023-02-23T04:55:14;63.60;;;43.67;;
9986;SDS011;5033;46.310;11.214;2023-02-23T04:57:42;57.83;;;40.15;;
9986;SDS011;5033;46.310;11.214;2023-02-23T05:00:10;67.10;;;43.55;;
9986;SDS011;5033;46.310;11.214;2023-02-23T05:02:38;62.85;;;41.92;;
9986;SDS011;5033;46.310;11.214;2023-02-23T05:05:05;67.07;;;43.42;;
9986;SDS011;5033;46.310;11.214;2023-02-23T05:07:34;64.82;;;43.95;;
9986;SDS011;5033;46.310;11.214;2023-02-23T05:10:04;68.00;;;44.67;;
9986;SDS011;5033;46.310;11.214;2023-02-23T05:12:32;67.25;;;44.72;;
9986;SDS011;5033;46.310;11.214;2023-02-23T05:14:59;90.38;;;56.40;;
9986;SDS011;5033;46.310;11.214;2023-02-23T05:17:26;68.10;;;48.20;;
9986;SDS011;5033;46.310;11.214;2023-02-23T05:19:52;67.15;;;46.15;;
9986;SDS011;5033;46.310;11.214;2023-02-23T05:22:20;71.95;;;46.50;;
9986;SDS011;5033;46.310;11.214;2023-02-23T05:24:47;68.43;;;45.95;;
9986;SDS011;5033;46.310;11.214;2023-02-23T05:27:16;66.43;;;44.03;;
9986;SDS011;5033;46.310;11.214;2023-02-23T05:29:43;61.17;;;43.28;;
9986;SDS011;5033;46.310;11.214;2023-02-23T05:32:10;60.65;;;42.60;;
9986;SDS011;5033;46.310;11.214;2023-02-23T05:34:37;61.58;;;42.55;;
9986;SDS011;5033;46.310;11.214;2023-02-23T05:37:05;57.42;;;40.28;;
9986;SDS011;5033;46.310;11.214;2023-02-23T05:39:32;65.45;;;43.38;;
9986;SDS011;5033;46.310;11.214;2023-02-23T05:41:59;60.17;;;42.30;;
9986;SDS011;5033;46.310;11.214;2023-02-23T05:44:27;61.42;;;42.50;;
9986;SDS011;5033;46.310;11.214;2023-02-23T05:46:55;66.40;;;44.70;;
9986;SDS011;5033;46.310;11.214;2023-02-23T05:49:22;62.67;;;42.40;;
9986;SDS011;5033;46.310;11.214;2023-02-23T05:51:49;60.80;;;43.00;;
9986;SDS011;5033;46.310;11.214;2023-02-23T05:54:16;57.65;;;40.60;;
9986;SDS011;5033;46.310;11.214;2023-02-23T05:56:43;60.65;;;39.60;;
9986;SDS011;5033;46.310;11.214;2023-02-23T05:59:10;58.80;;;40.30;;
9986;SDS011;5033;46.310;11.214;2023-02-23T06:01:39;57.05;;;40.42;;
9986;SDS011;5033;46.310;11.214;2023-02-23T06:04:06;64.80;;;41.78;;
9986;SDS011;5033;46.310;11.214;2023-02-23T06:06:34;54.45;;;38.03;;
9986;SDS011;5033;46.310;11.214;2023-02-23T06:09:01;62.28;;;42.58;;
9986;SDS011;5033;46.310;11.214;2023-02-23T06:11:28;66.30;;;44.30;;
9986;SDS011;5033;46.310;11.214;2023-02-23T06:13:56;57.40;;;41.88;;
9986;SDS011;5033;46.310;11.214;2023-02-23T06:16:24;68.97;;;46.83;;
9986;SDS011;5033;46.310;11.214;2023-02-23T06:18:53;70.85;;;46.03;;
9986;SDS011;5033;46.310;11.214;2023-02-23T06:21:21;66.25;;;43.75;;
9986;SDS011;5033;46.310;11.214;2023-02-23T06:23:49;73.72;;;47.47;;
9986;SDS011;5033;46.310;11.214;2023-02-23T06:26:17;63.53;;;43.90;;
9986;SDS011;5033;46.310;11.214;2023-02-23T06:28:44;71.60;;;47.72;;
9986;SDS011;5033;46.310;11.214;2023-02-23T06:31:11;68.85;;;45.55;;
9986;SDS011;5033;46.310;11.214;2023-02-23T06:33:38;82.18;;;50.70;;
9986;SDS011;5033;46.310;11.214;2023-02-23T06:36:07;76.18;;;49.78;;
9986;SDS011;5033;46.310;11.214;2023-02-23T06:38:34;72.82;;;49.47;;
9986;SDS011;5033;46.310;11.214;2023-02-23T06:41:05;74.60;;;50.22;;
9986;SDS011;5033;46.310;11.214;2023-02-23T06:43:33;75.82;;;49.17;;
9986;SDS011;5033;46.310;11.214;2023-02-23T06:46:00;70.60;;;45.42;;
9986;SDS011;5033;46.310;11.214;2023-02-23T06:48:28;64.40;;;44.88;;
9986;SDS011;5033;46.310;11.214;2023-02-23T06:50:56;63.88;;;43.05;;
9986;SDS011;5033;46.310;11.214;2023-02-23T06:53:25;63.90;;;42.45;;
9986;SDS011;5033;46.310;11.214;2023-02-23T06:55:53;61.13;;;41.97;;
9986;SDS011;5033;46.310;11.214;2023-02-23T06:58:20;58.78;;;39.45;;
9986;SDS011;5033;46.310;11.214;2023-02-23T07:00:47;61.75;;;43.50;;
9986;SDS011;5033;46.310;11.214;2023-02-23T07:03:14;64.53;;;42.15;;
9986;SDS011;5033;46.310;11.214;2023-02-23T07:05:43;64.15;;;41.83;;
9986;SDS011;5033;46.310;11.214;2023-02-23T07:08:10;64.05;;;43.70;;
9986;SDS011;5033;46.310;11.214;2023-02-23T07:10:39;72.43;;;45.85;;
9986;SDS011;5033;46.310;11.214;2023-02-23T07:13:06;68.05;;;45.28;;
9986;SDS011;5033;46.310;11.214;2023-02-23T07:15:33;71.28;;;50.17;;
9986;SDS011;5033;46.310;11.214;2023-02-23T07:18:01;70.95;;;47.33;;
9986;SDS011;5033;46.310;11.214;2023-02-23T07:20:28;71.30;;;46.80;;
9986;SDS011;5033;46.310;11.214;2023-02-23T07:22:55;74.30;;;48.83;;
9986;SDS011;5033;46.310;11.214;2023-02-23T07:25:22;67.20;;;46.92;;
9986;SDS011;5033;46.310;11.214;2023-02-23T07:27:50;64.47;;;44.25;;
9986;SDS011;5033;46.310;11.214;2023-02-23T07:30:18;62.75;;;43.95;;
9986;SDS011;5033;46.310;11.214;2023-02-23T07:32:48;59.20;;;40.70;;
9986;SDS011;5033;46.310;11.214;2023-02-23T07:35:15;57.67;;;40.45;;
9986;SDS011;5033;46.310;11.214;2023-02-23T07:37:43;58.03;;;40.97;;
9986;SDS011;5033;46.310;11.214;2023-02-23T07:40:10;66.65;;;45.40;;
9986;SDS011;5033;46.310;11.214;2023-02-23T07:42:38;83.28;;;50.38;;
9986;SDS011;5033;46.310;11.214;2023-02-23T07:45:08;68.18;;;45.03;;
9986;SDS011;5033;46.310;11.214;2023-02-23T07:47:36;71.90;;;47.80;;
9986;SDS011;5033;46.310;11.214;2023-02-23T07:50:04;71.45;;;48.92;;
9986;SDS011;5033;46.310;11.214;2023-02-23T07:52:34;70.90;;;46.53;;
9986;SDS011;5033;46.310;11.214;2023-02-23T07:55:01;75.32;;;49.35;;
9986;SDS011;5033;46.310;11.214;2023-02-23T07:57:29;71.32;;;47.50;;
9986;SDS011;5033;46.310;11.214;2023-02-23T07:59:56;70.63;;;47.55;;
9986;SDS011;5033;46.310;11.214;2023-02-23T08:02:24;73.43;;;48.97;;
9986;SDS011;5033;46.310;11.214;2023-02-23T08:04:53;77.32;;;49.08;;
9986;SDS011;5033;46.310;11.214;2023-02-23T08:07:20;75.90;;;50.47;;
9986;SDS011;5033;46.310;11.214;2023-02-23T08:09:48;77.00;;;51.85;;
9986;SDS011;5033;46.310;11.214;2023-02-23T08:12:15;75.40;;;52.15;;
9986;SDS011;5033;46.310;11.214;2023-02-23T08:14:42;72.65;;;49.80;;
9986;SDS011;5033;46.310;11.214;2023-02-23T08:17:10;73.22;;;50.60;;
9986;SDS011;5033;46.310;11.214;2023-02-23T08:19:38;75.95;;;51.75;;
9986;SDS011;5033;46.310;11.214;2023-02-23T08:22:05;81.07;;;51.80;;
9986;SDS011;5033;46.310;11.214;2023-02-23T08:24:32;73.80;;;49.65;;
9986;SDS011;5033;46.310;11.214;2023-02-23T08:27:00;80.65;;;55.53;;
9986;SDS011;5033;46.310;11.214;2023-02-23T08:29:27;77.20;;;53.35;;
9986;SDS011;5033;46.310;11.214;2023-02-23T08:31:54;73.75;;;50.40;;
9986;SDS011;5033;46.310;11.214;2023-02-23T08:34:24;76.57;;;50.78;;
9986;SDS011;5033;46.310;11.214;2023-02-23T08:36:52;76.70;;;52.20;;
9986;SDS011;5033;46.310;11.214;2023-02-23T08:39:19;85.97;;;56.88;;
9986;SDS011;5033;46.310;11.214;2023-02-23T08:41:47;89.47;;;59.55;;
9986;SDS011;5033;46.310;11.214;2023-02-23T08:44:14;81.35;;;56.13;;
9986;SDS011;5033;46.310;11.214;2023-02-23T08:46:40;88.40;;;57.65;;
9986;SDS011;5033;46.310;11.214;2023-02-23T08:49:09;85.80;;;56.90;;
9986;SDS011;5033;46.310;11.214;2023-02-23T08:51:36;86.75;;;58.42;;
9986;SDS011;5033;46.310;11.214;2023-02-23T08:54:07;81.95;;;55.30;;
9986;SDS011;5033;46.310;11.214;2023-02-23T08:56:38;88.32;;;56.22;;
9986;SDS011;5033;46.310;11.214;2023-02-23T08:59:06;80.30;;;54.63;;
9986;SDS011;5033;46.310;11.214;2023-02-23T09:01:33;89.68;;;58.50;;
9986;SDS011;5033;46.310;11.214;2023-02-23T09:04:01;85.25;;;54.55;;
9986;SDS011;5033;46.310;11.214;2023-02-23T09:06:28;86.72;;;58.78;;
9986;SDS011;5033;46.310;11.214;2023-02-23T09:08:55;84.78;;;57.08;;
9986;SDS011;5033;46.310;11.214;2023-02-23T09:11:24;86.50;;;59.05;;
9986;SDS011;5033;46.310;11.214;2023-02-23T09:13:51;91.72;;;61.00;;
9986;SDS011;5033;46.310;11.214;2023-02-23T09:16:19;77.85;;;54.90;;
9986;SDS011;5033;46.310;11.214;2023-02-23T09:18:46;92.40;;;59.13;;
9986;SDS011;5033;46.310;11.214;2023-02-23T09:21:14;89.45;;;58.55;;
9986;SDS011;5033;46.310;11.214;2023-02-23T09:23:44;83.95;;;56.28;;
9986;SDS011;5033;46.310;11.214;2023-02-23T09:26:13;90.78;;;59.53;;
9986;SDS011;5033;46.310;11.214;2023-02-23T09:28:43;93.40;;;61.58;;
9986;SDS011;5033;46.310;11.214;2023-02-23T09:31:11;87.40;;;58.72;;
9986;SDS011;5033;46.310;11.214;2023-02-23T09:33:40;88.03;;;58.10;;
9986;SDS011;5033;46.310;11.214;2023-02-23T09:36:07;92.30;;;61.55;;
9986;SDS011;5033;46.310;11.214;2023-02-23T09:38:37;93.45;;;61.17;;
9986;SDS011;5033;46.310;11.214;2023-02-23T09:41:04;83.50;;;58.13;;
9986;SDS011;5033;46.310;11.214;2023-02-23T09:43:55;88.45;;;59.33;;
9986;SDS011;5033;46.310;11.214;2023-02-23T09:46:28;81.07;;;55.50;;
9986;SDS011;5033;46.310;11.214;2023-02-23T09:49:01;85.10;;;57.03;;
9986;SDS011;5033;46.310;11.214;2023-02-23T09:51:29;84.82;;;57.00;;
9986;SDS011;5033;46.310;11.214;2023-02-23T09:54:02;76.22;;;54.05;;
9986;SDS011;5033;46.310;11.214;2023-02-23T09:56:33;85.47;;;54.72;;
9986;SDS011;5033;46.310;11.214;2023-02-23T09:59:04;91.72;;;63.33;;
9986;SDS011;5033;46.310;11.214;2023-02-23T10:01:37;88.82;;;61.13;;
9986;SDS011;5033;46.310;11.214;2023-02-23T10:04:19;80.00;;;55.92;;
9986;SDS011;5033;46.310;11.214;2023-02-23T10:06:49;89.45;;;58.38;;
9986;SDS011;5033;46.310;11.214;2023-02-23T10:09:22;87.05;;;60.15;;
9986;SDS011;5033;46.310;11.214;2023-02-23T10:11:55;83.63;;;56.75;;
9986;SDS011;5033;46.310;11.214;2023-02-23T10:14:33;87.03;;;61.03;;
9986;SDS011;5033;46.310;11.214;2023-02-23T10:17:21;93.40;;;60.92;;
9986;SDS011;5033;46.310;11.214;2023-02-23T10:19:55;106.68;;;68.90;;
9986;SDS011;5033;46.310;11.214;2023-02-23T10:22:30;97.40;;;64.97;;
9986;SDS011;5033;46.310;11.214;2023-02-23T10:25:01;104.07;;;69.05;;
9986;SDS011;5033;46.310;11.214;2023-02-23T10:27:35;89.85;;;61.35;;
9986;SDS011;5033;46.310;11.214;2023-02-23T10:30:13;91.85;;;60.63;;
9986;SDS011;5033;46.310;11.214;2023-02-23T10:32:46;93.60;;;63.08;;
9986;SDS011;5033;46.310;11.214;2023-02-23T10:35:19;88.03;;;59.47;;
9986;SDS011;5033;46.310;11.214;2023-02-23T10:37:48;91.57;;;61.47;;
9986;SDS011;5033;46.310;11.214;2023-02-23T10:40:18;91.10;;;61.42;;
9986;SDS011;5033;46.310;11.214;2023-02-23T10:42:48;95.47;;;61.85;;
9986;SDS011;5033;46.310;11.214;2023-02-23T10:45:20;100.45;;;66.75;;
9986;SDS011;5033;46.310;11.214;2023-02-23T10:47:50;89.13;;;60.17;;
9986;SDS011;5033;46.310;11.214;2023-02-23T10:50:20;94.43;;;64.20;;
9986;SDS011;5033;46.310;11.214;2023-02-23T10:52:51;102.78;;;67.82;;
9986;SDS011;5033;46.310;11.214;2023-02-23T10:55:24;100.32;;;66.10;;
9986;SDS011;5033;46.310;11.214;2023-02-23T10:58:03;106.88;;;73.07;;
9986;SDS011;5033;46.310;11.214;2023-02-23T11:00:50;95.10;;;65.47;;
9986;SDS011;5033;46.310;11.214;2023-02-23T11:03:22;93.65;;;61.13;;
9986;SDS011;5033;46.310;11.214;2023-02-23T11:05:57;92.10;;;60.25;;
9986;SDS011;5033;46.310;11.214;2023-02-23T11:08:26;88.07;;;60.03;;
9986;SDS011;5033;46.310;11.214;2023-02-23T11:11:00;97.80;;;65.47;;
9986;SDS011;5033;46.310;11.214;2023-02-23T11:13:39;97.72;;;65.57;;
9986;SDS011;5033;46.310;11.214;2023-02-23T11:16:12;104.38;;;68.30;;
9986;SDS011;5033;46.310;11.214;2023-02-23T11:19:06;102.18;;;69.38;;
9986;SDS011;5033;46.310;11.214;2023-02-23T11:21:48;95.28;;;62.72;;
9986;SDS011;5033;46.310;11.214;2023-02-23T11:24:17;96.88;;;64.90;;
9986;SDS011;5033;46.310;11.214;2023-02-23T11:26:50;101.72;;;65.35;;
9986;SDS011;5033;46.310;11.214;2023-02-23T11:29:23;106.97;;;70.78;;
9986;SDS011;5033;46.310;11.214;2023-02-23T11:31:59;94.22;;;63.63;;
9986;SDS011;5033;46.310;11.214;2023-02-23T11:34:36;100.32;;;67.93;;
9986;SDS011;5033;46.310;11.214;2023-02-23T11:37:05;110.22;;;70.95;;
9986;SDS011;5033;46.310;11.214;2023-02-23T11:39:49;100.55;;;67.38;;
9986;SDS011;5033;46.310;11.214;2023-02-23T11:42:20;104.07;;;72.15;;
9986;SDS011;5033;46.310;11.214;2023-02-23T11:44:50;112.85;;;74.80;;
9986;SDS011;5033;46.310;11.214;2023-02-23T11:47:28;95.15;;;65.55;;
9986;SDS011;5033;46.310;11.214;2023-02-23T11:49:57;105.70;;;68.07;;
9986;SDS011;5033;46.310;11.214;2023-02-23T11:52:25;108.10;;;70.47;;
9986;SDS011;5033;46.310;11.214;2023-02-23T11:54:54;95.38;;;64.32;;
9986;SDS011;5033;46.310;11.214;2023-02-23T11:57:24;95.45;;;64.35;;
9986;SDS011;5033;46.310;11.214;2023-02-23T12:00:00;95.55;;;65.93;;
9986;SDS011;5033;46.310;11.214;2023-02-23T12:02:43;95.18;;;66.95;;
9986;SDS011;5033;46.310;11.214;2023-02-23T12:05:17;103.43;;;68.57;;
9986;SDS011;5033;46.310;11.214;2023-02-23T12:07:51;102.45;;;67.75;;
9986;SDS011;5033;46.310;11.214;2023-02-23T12:10:22;96.32;;;64.45;;
9986;SDS011;5033;46.310;11.214;2023-02-23T12:12:54;97.30;;;65.65;;
9986;SDS011;5033;46.310;11.214;2023-02-23T12:15:31;92.47;;;60.60;;
9986;SDS011;5033;46.310;11.214;2023-02-23T12:18:10;100.95;;;65.78;;
9986;SDS011;5033;46.310;11.214;2023-02-23T12:20:44;97.72;;;66.78;;
9986;SDS011;5033;46.310;11.214;2023-02-23T12:23:14;89.82;;;61.65;;
9986;SDS011;5033;46.310;11.214;2023-02-23T12:25:46;88.40;;;62.35;;
9986;SDS011;5033;46.310;11.214;2023-02-23T12:28:19;94.60;;;64.18;;
9986;SDS011;5033;46.310;11.214;2023-02-23T12:30:55;91.07;;;61.95;;
9986;SDS011;5033;46.310;11.214;2023-02-23T12:33:30;94.30;;;62.90;;
9986;SDS011;5033;46.310;11.214;2023-02-23T12:36:08;90.10;;;59.72;;
9986;SDS011;5033;46.310;11.214;2023-02-23T12:38:47;84.75;;;58.33;;
9986;SDS011;5033;46.310;11.214;2023-02-23T12:41:24;97.40;;;62.35;;
9986;SDS011;5033;46.310;11.214;2023-02-23T12:44:02;91.93;;;61.33;;
9986;SDS011;5033;46.310;11.214;2023-02-23T12:50:32;85.90;;;57.80;;
9986;SDS011;5033;46.310;11.214;2023-02-23T12:53:04;79.80;;;55.30;;
9986;SDS011;5033;46.310;11.214;2023-02-23T12:55:40;75.38;;;50.80;;
9986;SDS011;5033;46.310;11.214;2023-02-23T12:58:16;85.90;;;56.83;;
9986;SDS011;5033;46.310;11.214;2023-02-23T13:00:54;89.93;;;59.50;;
9986;SDS011;5033;46.310;11.214;2023-02-23T13:03:32;79.60;;;54.78;;
9986;SDS011;5033;46.310;11.214;2023-02-23T13:06:17;80.40;;;55.78;;
9986;SDS011;5033;46.310;11.214;2023-02-23T13:09:01;81.97;;;55.75;;
9986;SDS011;5033;46.310;11.214;2023-02-23T13:11:41;72.72;;;50.30;;
9986;SDS011;5033;46.310;11.214;2023-02-23T13:14:29;68.70;;;49.30;;
9986;SDS011;5033;46.310;11.214;2023-02-23T13:17:03;69.93;;;48.05;;
9986;SDS011;5033;46.310;11.214;2023-02-23T13:19:43;80.90;;;54.95;;
9986;SDS011;5033;46.310;11.214;2023-02-23T13:22:23;75.68;;;51.88;;
9986;SDS011;5033;46.310;11.214;2023-02-23T13:24:57;72.50;;;50.63;;
9986;SDS011;5033;46.310;11.214;2023-02-23T13:27:28;83.03;;;57.03;;
9986;SDS011;5033;46.310;11.214;2023-02-23T13:30:01;75.18;;;52.45;;
9986;SDS011;5033;46.310;11.214;2023-02-23T13:32:31;71.60;;;48.58;;
9986;SDS011;5033;46.310;11.214;2023-02-23T13:35:01;64.00;;;43.72;;
9986;SDS011;5033;46.310;11.214;2023-02-23T13:37:34;59.47;;;43.67;;
9986;SDS011;5033;46.310;11.214;2023-02-23T13:40:13;77.28;;;53.08;;
9986;SDS011;5033;46.310;11.214;2023-02-23T13:42:52;62.13;;;42.15;;
9986;SDS011;5033;46.310;11.214;2023-02-23T13:45:42;61.85;;;41.20;;
9986;SDS011;5033;46.310;11.214;2023-02-23T13:48:22;69.60;;;47.17;;
9986;SDS011;5033;46.310;11.214;2023-02-23T13:50:56;62.85;;;43.70;;
9986;SDS011;5033;46.310;11.214;2023-02-23T13:53:35;63.28;;;43.85;;
9986;SDS011;5033;46.310;11.214;2023-02-23T13:56:05;60.97;;;41.90;;
9986;SDS011;5033;46.310;11.214;2023-02-23T13:58:34;64.85;;;42.28;;
9986;SDS011;5033;46.310;11.214;2023-02-23T14:01:03;59.63;;;40.72;;
9986;SDS011;5033;46.310;11.214;2023-02-23T14:03:38;58.65;;;40.55;;
9986;SDS011;5033;46.310;11.214;2023-02-23T14:06:10;58.70;;;39.65;;
9986;SDS011;5033;46.310;11.214;2023-02-23T14:08:42;62.92;;;41.80;;
9986;SDS011;5033;46.310;11.214;2023-02-23T14:11:26;62.67;;;43.17;;
9986;SDS011;5033;46.310;11.214;2023-02-23T14:14:00;59.83;;;42.63;;
9986;SDS011;5033;46.310;11.214;2023-02-23T14:16:29;60.60;;;41.42;;
9986;SDS011;5033;46.310;11.214;2023-02-23T14:19:08;56.47;;;40.72;;
9986;SDS011;5033;46.310;11.214;2023-02-23T14:21:44;66.78;;;42.70;;
9986;SDS011;5033;46.310;11.214;2023-02-23T14:24:18;60.95;;;42.00;;
9986;SDS011;5033;46.310;11.214;2023-02-23T14:30:14;62.53;;;42.97;;
9986;SDS011;5033;46.310;11.214;2023-02-23T14:32:51;57.03;;;39.78;;
9986;SDS011;5033;46.310;11.214;2023-02-23T14:35:34;61.00;;;40.22;;
9986;SDS011;5033;46.310;11.214;2023-02-23T14:38:10;61.88;;;40.65;;
9986;SDS011;5033;46.310;11.214;2023-02-23T14:40:53;57.92;;;40.28;;
9986;SDS011;5033;46.310;11.214;2023-02-23T14:43:32;61.17;;;39.25;;
9986;SDS011;5033;46.310;11.214;2023-02-23T14:46:10;57.15;;;39.88;;
9986;SDS011;5033;46.310;11.214;2023-02-23T14:48:43;58.63;;;39.13;;
9986;SDS011;5033;46.310;11.214;2023-02-23T14:51:23;60.47;;;41.25;;
9986;SDS011;5033;46.310;11.214;2023-02-23T14:53:57;65.40;;;43.38;;
9986;SDS011;5033;46.310;11.214;2023-02-23T14:56:26;59.35;;;40.47;;
9986;SDS011;5033;46.310;11.214;2023-02-23T14:58:54;53.90;;;37.63;;
9986;SDS011;5033;46.310;11.214;2023-02-23T15:01:30;60.28;;;41.17;;
9986;SDS011;5033;46.310;11.214;2023-02-23T15:04:08;62.75;;;42.88;;
9986;SDS011;5033;46.310;11.214;2023-02-23T15:06:37;60.17;;;40.60;;
9986;SDS011;5033;46.310;11.214;2023-02-23T15:09:07;55.05;;;37.58;;
9986;SDS011;5033;46.310;11.214;2023-02-23T15:11:43;52.15;;;36.85;;
9986;SDS011;5033;46.310;11.214;2023-02-23T15:14:18;58.35;;;39.88;;
9986;SDS011;5033;46.310;11.214;2023-02-23T15:16:47;66.88;;;41.05;;
9986;SDS011;5033;46.310;11.214;2023-02-23T15:19:16;59.17;;;41.08;;
9986;SDS011;5033;46.310;11.214;2023-02-23T15:21:48;58.75;;;41.70;;
9986;SDS011;5033;46.310;11.214;2023-02-23T15:24:20;58.72;;;39.38;;